Alexander, Illinois
Current Conditions -  °F | °C
As of 12:55 PM on Wednesday 26 Nov 2014 (Local Time) from KIJX Reporting Station
Overcast Overcast  
Wind Chill: 27°   Ceiling: 1100
Heat Index: 35°   Visibility: 10mi
Dew Point: 30°   Wind: 12mph
Humidity: 83%   Direction: 110°ESE
Pressure: 29.99"   Gusts: 20mph
Location:  39.72°N, 90.04°W
Report Text: KIJX 261855Z AUTO 11010G17KT 10SM BKN011 BKN024 OVC055 02/M01 A2999 RMK AO2 T00171009
Loading
Personal Weather Stations






























Interactive Weather Map New forecast layout! Learn more

10-Day Weather Forecast

Advertisements
Track Severe Weather on mobile